Time;durP1;ratioP1;P1;durP2;ratioP2;P2;SDS_P1;SDS_P2;PMS_P1;PMS_P2;Temp;Humidity;BMP_temperature;BMP_pressure;BME280_temperature;BME280_humidity;BME280_pressure;Samples;Min_cycle;Max_cycle;Signal;HPM_P1;HPM_P2
2021/09/07 00:00:00;;;;;;;11.60;7.80;;;15.40;64.70;;;15.00;49.83;95731.81;5012390;28;20193;-78
2021/09/07 00:02:38;;;;;;;12.38;7.75;;;15.50;64.90;;;14.97;49.89;95728.75;5019827;28;20199;-77
2021/09/07 00:05:09;;;;;;;12.38;7.75;;;15.40;64.90;;;14.89;49.83;95727.91;5030851;28;20196;-78
2021/09/07 00:07:39;;;;;;;9.90;7.53;;;15.30;65.10;;;14.86;50.01;95725.66;5010569;28;20259;-78
2021/09/07 00:10:10;;;;;;;10.60;7.80;;;15.30;65.00;;;14.82;49.88;95723.63;5027545;28;20185;-78
2021/09/07 00:12:37;;;;;;;11.25;7.72;;;15.20;65.10;;;14.76;50.12;95727.88;5027287;28;20569;-78
2021/09/07 00:15:08;;;;;;;12.15;8.52;;;15.20;65.00;;;14.71;50.17;95723.16;5011062;28;20196;-77
2021/09/07 00:17:37;;;;;;;11.15;8.02;;;15.10;65.20;;;14.65;50.46;95726.59;5020472;28;20211;-78
2021/09/07 00:20:07;;;;;;;11.18;8.00;;;15.10;65.70;;;14.62;50.30;95721.66;5011059;28;20204;-78
2021/09/07 00:22:35;;;;;;;13.07;8.13;;;15.00;65.30;;;14.52;50.37;95719.41;5024990;28;20295;-76
2021/09/07 00:25:04;;;;;;;10.68;7.75;;;14.90;65.30;;;14.49;50.83;95719.81;4994861;28;20208;-78
2021/09/07 00:27:32;;;;;;;10.07;7.68;;;14.90;65.50;;;14.44;50.79;95722.22;5010965;28;20259;-79
2021/09/07 00:29:59;;;;;;;13.85;8.13;;;14.90;65.60;;;14.43;50.99;95722.41;5010910;28;20251;-78
2021/09/07 00:32:26;;;;;;;11.57;7.60;;;14.90;65.70;;;14.38;50.94;95729.09;5022619;28;20247;-78
2021/09/07 00:34:54;;;;;;;12.38;7.75;;;14.80;65.70;;;14.35;50.96;95723.38;5032297;28;20204;-78
2021/09/07 00:37:21;;;;;;;11.85;8.52;;;14.70;65.70;;;14.34;51.27;95729.66;5030462;28;20196;-77
2021/09/07 00:39:49;;;;;;;12.95;8.07;;;14.80;65.90;;;14.33;51.06;95725.41;5014136;28;20218;-78
2021/09/07 00:42:16;;;;;;;12.23;8.35;;;14.60;65.80;;;14.28;50.83;95722.53;5012831;28;20213;-78
2021/09/07 00:44:43;;;;;;;10.98;8.32;;;14.60;65.90;;;14.29;51.29;95724.16;4998597;28;20197;-78
2021/09/07 00:47:11;;;;;;;10.88;8.05;;;14.60;66.00;;;14.27;51.44;95716.44;5014540;28;20204;-78
2021/09/07 00:49:38;;;;;;;10.57;8.02;;;14.60;66.00;;;14.25;51.23;95715.81;5014792;28;20199;-78
2021/09/07 00:52:06;;;;;;;10.18;7.75;;;14.50;66.00;;;14.24;51.26;95709.75;5014636;28;20263;-78
2021/09/07 00:54:38;;;;;;;11.07;7.53;;;14.50;66.10;;;14.23;51.25;95707.28;4998317;28;20247;-78
2021/09/07 00:57:08;;;;;;;10.73;8.23;;;14.50;66.30;;;14.22;51.29;95706.47;4998278;28;20295;-78
2021/09/07 00:59:36;;;;;;;10.70;7.30;;;14.50;66.30;;;14.22;51.41;95706.47;4998462;28;20200;-78
2021/09/07 01:02:05;;;;;;;10.75;7.88;;;14.50;66.20;;;14.21;51.20;95704.84;5014190;28;20278;-77
2021/09/07 01:04:34;;;;;;;11.45;8.50;;;14.50;66.30;;;14.23;51.31;95694.09;5017554;28;20238;-77
2021/09/07 01:07:05;;;;;;;14.35;8.25;;;14.50;66.30;;;14.23;51.21;95702.84;5033929;28;20250;-78
2021/09/07 01:09:35;;;;;;;10.60;8.02;;;14.50;66.40;;;14.26;51.64;95699.00;5017708;28;20274;-79
2021/09/07 01:12:07;;;;;;;11.48;8.07;;;14.50;66.80;;;14.27;51.66;95695.34;5050185;28;20670;-77
2021/09/07 01:14:37;;;;;;;11.13;8.10;;;14.50;66.90;;;14.28;51.76;95691.69;5032062;28;20540;-77
2021/09/07 01:17:17;;;;;;;11.15;7.60;;;14.60;66.90;;;14.31;51.97;95701.84;5017537;28;20270;-77
2021/09/07 01:19:48;;;;;;;10.25;7.38;;;14.50;67.70;;;14.34;52.08;95695.34;5017722;28;20196;-77
2021/09/07 01:22:19;;;;;;;10.32;7.70;;;14.60;67.20;;;14.35;51.98;95692.53;5034046;28;20238;-77
2021/09/07 01:24:48;;;;;;;9.73;7.40;;;14.60;67.10;;;14.38;51.94;95694.78;5030269;28;20197;-78
2021/09/07 01:27:18;;;;;;;10.40;7.25;;;14.60;67.10;;;14.40;51.86;95697.22;5014107;28;20658;-77
2021/09/07 01:29:47;;;;;;;9.98;7.43;;;14.50;67.00;;;14.41;51.77;95698.84;5030470;28;20216;-78
2021/09/07 01:32:16;;;;;;;11.75;7.63;;;14.60;66.90;;;14.39;51.90;95695.59;5030801;28;20263;-77
2021/09/07 01:34:44;;;;;;;11.70;7.60;;;14.60;67.10;;;14.40;51.78;95694.56;4997724;28;20662;-78
2021/09/07 01:37:11;;;;;;;9.52;7.47;;;14.60;66.90;;;14.38;51.89;95694.78;5013647;28;20304;-78
2021/09/07 01:39:39;;;;;;;10.07;7.47;;;14.60;66.90;;;14.33;51.91;95685.81;5013593;28;20193;-77
2021/09/07 01:42:08;;;;;;;9.18;7.20;;;14.60;66.90;;;14.34;51.96;95696.19;5016764;28;20313;-78
2021/09/07 01:44:42;;;;;;;10.52;7.32;;;14.60;67.00;;;14.33;52.12;95685.81;5033458;28;20200;-78
2021/09/07 01:47:09;;;;;;;10.80;7.88;;;14.60;67.50;;;14.31;51.85;95686.00;5016839;28;20287;-78
2021/09/07 01:49:38;;;;;;;10.18;7.55;;;14.60;66.90;;;14.26;51.97;95680.53;5033463;28;20210;-78
2021/09/07 01:52:13;;;;;;;14.05;8.07;;;14.60;67.10;;;14.27;52.27;95678.69;5030408;28;20216;-77
2021/09/07 01:54:48;;;;;;;9.77;7.50;;;14.50;67.90;;;14.25;52.43;95686.81;5016962;28;20196;-78
2021/09/07 01:57:16;;;;;;;10.07;7.28;;;14.50;67.70;;;14.23;52.25;95684.38;5016741;28;20194;-78
2021/09/07 01:59:44;;;;;;;10.93;6.97;;;14.50;67.20;;;14.21;52.51;95678.47;5008556;28;20215;-77
2021/09/07 02:02:13;;;;;;;10.00;7.55;;;14.60;67.20;;;14.18;52.42;95673.56;5013066;28;20204;-78
2021/09/07 02:04:45;;;;;;;8.90;7.15;;;14.50;67.20;;;14.17;52.43;95677.22;5013406;28;20583;-76
2021/09/07 02:07:14;;;;;;;9.63;7.38;;;14.50;67.20;;;14.13;52.35;95672.53;5031597;28;20196;-77
2021/09/07 02:09:44;;;;;;;10.60;7.38;;;14.40;67.20;;;14.15;52.44;95670.53;5029646;28;20187;-76
2021/09/07 02:12:11;;;;;;;9.85;7.28;;;14.50;67.30;;;14.13;52.43;95670.69;5006860;28;20232;-76
2021/09/07 02:14:39;;;;;;;9.98;7.47;;;14.40;67.30;;;14.13;52.78;95670.69;4996893;28;20190;-77
2021/09/07 02:17:07;;;;;;;11.43;7.72;;;14.40;67.40;;;14.14;52.66;95679.44;4996342;28;20220;-75
2021/09/07 02:19:34;;;;;;;10.73;7.78;;;14.50;67.60;;;14.11;52.62;95672.75;5007438;28;20200;-76
2021/09/07 02:22:03;;;;;;;12.30;8.57;;;14.40;67.60;;;14.13;52.59;95675.16;5012735;28;20223;-77
2021/09/07 02:24:32;;;;;;;11.35;7.28;;;14.30;67.60;;;14.12;52.89;95684.09;5012992;28;20185;-77
2021/09/07 02:27:01;;;;;;;10.13;7.60;;;14.40;67.70;;;14.10;52.79;95676.38;5012610;28;20243;-76
2021/09/07 02:29:29;;;;;;;11.13;7.32;;;14.40;67.80;;;14.12;53.07;95681.44;5019219;28;20193;-76
2021/09/07 02:31:56;;;;;;;10.75;7.05;;;14.40;67.90;;;14.12;53.21;95679.63;5013701;28;20671;-77
2021/09/07 02:34:25;;;;;;;11.75;8.43;;;14.40;68.00;;;14.13;53.25;95670.69;4996614;28;20196;-76
2021/09/07 02:36:53;;;;;;;10.43;7.35;;;14.40;68.10;;;14.15;53.19;95662.63;5012464;28;20240;-77
2021/09/07 02:39:20;;;;;;;10.02;7.25;;;14.40;68.20;;;14.17;53.21;95668.47;5015571;28;20199;-76
2021/09/07 02:41:48;;;;;;;9.43;7.15;;;14.40;68.10;;;14.18;53.03;95670.13;5032225;28;20281;-76
2021/09/07 02:44:15;;;;;;;11.30;7.18;;;14.40;68.10;;;14.20;52.99;95663.63;5032137;28;20680;-76
2021/09/07 02:46:45;;;;;;;9.80;7.18;;;14.50;68.20;;;14.19;53.27;95661.19;5032306;28;20216;-78
2021/09/07 02:49:14;;;;;;;8.75;7.05;;;14.40;68.10;;;14.19;53.43;95664.63;5013639;28;20215;-77
2021/09/07 02:51:47;;;;;;;10.10;7.40;;;14.40;68.10;;;14.16;53.11;95669.50;4999833;28;20638;-76
2021/09/07 02:54:16;;;;;;;10.02;7.20;;;14.40;68.00;;;14.15;53.18;95668.69;5029374;28;20263;-76
2021/09/07 02:56:43;;;;;;;8.63;6.80;;;14.40;68.00;;;14.13;53.08;95667.25;5025422;28;20669;-77
2021/09/07 02:59:11;;;;;;;10.20;7.65;;;14.40;68.00;;;14.12;53.21;95660.34;5014503;28;20283;-77
2021/09/07 03:01:39;;;;;;;9.75;7.13;;;14.40;68.00;;;14.09;53.23;95658.91;5030431;28;20222;-77
2021/09/07 03:04:07;;;;;;;13.45;7.75;;;14.40;68.00;;;14.07;53.12;95659.13;5031247;28;20516;-77
2021/09/07 03:06:35;;;;;;;9.63;7.22;;;14.30;68.00;;;14.03;53.45;95662.34;5030712;28;20278;-76
2021/09/07 03:09:04;;;;;;;9.73;7.60;;;14.40;68.10;;;14.00;53.64;95666.19;5010899;28;20200;-76
2021/09/07 03:11:32;;;;;;;9.88;7.20;;;14.40;68.20;;;13.98;53.07;95664.75;4995623;28;20225;-78
2021/09/07 03:13:59;;;;;;;11.77;8.30;;;14.30;68.10;;;13.93;53.49;95660.84;4999917;28;20589;-77
2021/09/07 03:16:27;;;;;;;9.55;7.13;;;14.20;68.20;;;13.92;53.57;95669.78;5022033;28;20682;-77
2021/09/07 03:18:55;;;;;;;10.38;7.80;;;14.20;68.30;;;13.92;53.63;95682.16;5038522;28;20200;-76
2021/09/07 03:21:23;;;;;;;10.55;7.40;;;14.20;68.50;;;13.90;53.69;95668.34;4986837;28;20509;-77
2021/09/07 03:23:51;;;;;;;13.95;7.90;;;14.20;68.50;;;13.88;53.87;95671.19;5005634;28;20196;-77
2021/09/07 03:26:18;;;;;;;9.23;7.30;;;14.20;68.60;;;13.88;54.01;95670.38;4992703;28;20201;-77
2021/09/07 03:28:46;;;;;;;9.77;7.95;;;14.20;68.50;;;13.88;53.42;95668.53;5005237;28;20202;-77
2021/09/07 03:31:15;;;;;;;9.85;7.15;;;14.20;68.50;;;13.88;53.87;95668.53;5020925;28;20270;-77
2021/09/07 03:33:43;;;;;;;10.15;7.07;;;14.10;68.40;;;13.87;53.49;95666.91;5003676;28;20295;-76
2021/09/07 03:36:11;;;;;;;9.68;7.07;;;14.10;68.50;;;13.88;53.81;95670.38;5021902;28;20218;-77
2021/09/07 03:38:39;;;;;;;10.20;7.03;;;14.10;68.40;;;13.88;53.80;95668.53;5013817;28;20231;-78
2021/09/07 03:41:07;;;;;;;11.35;7.28;;;14.10;68.50;;;13.87;53.82;95672.19;5035755;28;20267;-77
2021/09/07 03:43:35;;;;;;;8.73;7.13;;;14.10;68.50;;;13.88;54.08;95676.44;5016327;28;20200;-78
2021/09/07 03:46:03;;;;;;;9.68;7.30;;;14.20;68.70;;;13.88;54.00;95665.91;5029685;28;20211;-78
2021/09/07 03:48:31;;;;;;;8.70;6.57;;;14.20;68.70;;;13.90;53.87;95666.53;5030884;28;20200;-78
2021/09/07 03:51:00;;;;;;;8.88;7.00;;;14.10;68.50;;;13.89;53.77;95666.72;5014638;28;20723;-78
2021/09/07 03:53:29;;;;;;;9.48;6.95;;;14.20;68.70;;;13.92;53.95;95675.03;5010334;28;20244;-76
2021/09/07 03:55:57;;;;;;;10.20;7.30;;;14.10;68.60;;;13.92;53.88;95669.78;5007795;28;20693;-78
2021/09/07 03:58:24;;;;;;;10.32;7.50;;;14.10;68.60;;;13.91;53.76;95662.91;5029232;28;20195;-78
2021/09/07 04:00:52;;;;;;;9.85;7.03;;;14.10;68.70;;;13.92;53.82;95666.34;5012104;28;20212;-78
2021/09/07 04:03:21;;;;;;;8.80;6.32;;;14.10;68.60;;;13.91;53.67;95664.69;5014734;28;20200;-78
2021/09/07 04:05:50;;;;;;;8.60;6.53;;;14.10;68.60;;;13.93;53.81;95666.13;5031388;28;20208;-79
2021/09/07 04:08:17;;;;;;;10.43;6.50;;;14.20;68.80;;;13.94;53.90;95666.97;5023426;28;20193;-78
2021/09/07 04:10:45;;;;;;;8.32;6.55;;;14.20;68.80;;;13.95;54.10;95671.19;5027261;28;20295;-78
2021/09/07 04:13:13;;;;;;;8.88;6.70;;;14.20;68.90;;;13.96;54.09;95664.94;5010556;28;20702;-78
2021/09/07 04:15:42;;;;;;;8.95;6.72;;;14.10;68.70;;;13.99;53.95;95669.00;5013506;28;20213;-78
2021/09/07 04:18:10;;;;;;;10.60;7.03;;;14.20;68.80;;;14.01;53.93;95672.25;5014805;28;20211;-78
2021/09/07 04:20:37;;;;;;;9.63;7.10;;;14.20;68.90;;;14.03;54.12;95671.06;5032053;28;20219;-78
2021/09/07 04:23:05;;;;;;;10.38;7.25;;;14.20;69.00;;;14.04;53.98;95675.31;5030048;28;20212;-78
2021/09/07 04:25:32;;;;;;;8.23;6.80;;;14.20;69.10;;;14.07;53.94;95666.22;5018210;28;20251;-78
2021/09/07 04:27:59;;;;;;;9.68;6.72;;;14.30;69.20;;;14.14;54.36;95676.81;5019084;28;20291;-77
2021/09/07 04:30:26;;;;;;;10.10;7.57;;;14.20;69.20;;;14.18;54.46;95678.84;5023548;28;20230;-77
2021/09/07 04:32:54;;;;;;;9.57;7.28;;;14.30;69.40;;;14.23;54.12;95670.34;5024651;28;20234;-79
2021/09/07 04:35:21;;;;;;;9.68;7.32;;;14.30;69.40;;;14.30;54.26;95673.03;5014687;28;20278;-78
2021/09/07 04:37:48;;;;;;;9.35;6.88;;;14.40;69.60;;;14.34;54.17;95667.16;5014721;28;20231;-78
2021/09/07 04:40:16;;;;;;;8.82;6.43;;;14.40;69.60;;;14.39;54.96;95675.28;5000292;28;20235;-78
2021/09/07 04:42:44;;;;;;;9.90;7.03;;;14.40;69.60;;;14.45;54.63;95672.88;5017305;28;20294;-78
2021/09/07 04:45:12;;;;;;;9.00;6.35;;;14.50;69.70;;;14.48;54.37;95678.56;5034523;28;20208;-78
2021/09/07 04:47:43;;;;;;;12.40;6.43;;;14.50;69.70;;;14.50;54.16;95668.66;5030022;28;20604;-78
2021/09/07 04:50:10;;;;;;;8.65;6.30;;;14.50;69.60;;;14.53;54.33;95678.78;5030549;28;20209;-77
2021/09/07 04:52:37;;;;;;;9.75;6.85;;;14.60;69.70;;;14.54;54.31;95672.50;5014139;28;20228;-78
2021/09/07 04:55:04;;;;;;;9.55;6.60;;;14.70;69.70;;;14.53;54.43;95664.78;5014390;28;20859;-78
2021/09/07 04:57:34;;;;;;;12.20;7.90;;;14.70;69.70;;;14.56;54.47;95673.13;5015272;28;20414;-79
2021/09/07 05:00:01;;;;;;;17.90;9.40;;;14.70;69.70;;;14.55;54.50;95660.94;5014987;28;20594;-78
2021/09/07 05:02:34;;;;;;;17.30;9.73;;;14.80;69.70;;;14.58;54.40;95662.38;5012242;28;20197;-78
2021/09/07 05:05:07;;;;;;;15.55;9.52;;;14.70;70.20;;;14.62;54.56;95663.59;5014577;28;20228;-78
2021/09/07 05:07:37;;;;;;;14.23;8.75;;;14.70;69.80;;;14.66;54.61;95664.03;5045781;28;20269;-78
2021/09/07 05:10:05;;;;;;;16.15;8.48;;;14.80;70.00;;;14.69;54.96;95663.66;5021516;28;20197;-78
2021/09/07 05:12:32;;;;;;;20.40;9.65;;;14.80;70.00;;;14.73;54.74;95665.69;4997699;28;20248;-79
2021/09/07 05:15:00;;;;;;;15.55;8.77;;;14.90;70.10;;;14.81;54.78;95658.63;5030414;28;20268;-78
2021/09/07 05:17:27;;;;;;;12.85;8.07;;;14.90;71.10;;;14.87;54.84;95663.09;5039186;28;20673;-79
2021/09/07 05:19:54;;;;;;;11.65;8.15;;;14.90;70.30;;;14.94;54.90;95665.72;5033547;28;20208;-78
2021/09/07 05:22:22;;;;;;;11.82;7.68;;;14.90;70.20;;;15.03;54.80;95667.19;5011824;28;20316;-78
2021/09/07 05:24:49;;;;;;;11.32;7.03;;;15.00;70.50;;;15.07;54.69;95663.13;4998157;28;20604;-78
2021/09/07 05:27:16;;;;;;;11.80;7.35;;;15.10;70.60;;;15.21;54.92;95669.25;5002295;28;20207;-78
2021/09/07 05:29:43;;;;;;;10.40;7.22;;;15.20;70.70;;;15.31;55.08;95674.13;5000485;28;20288;-78
2021/09/07 05:32:11;;;;;;;9.73;6.50;;;15.20;70.80;;;15.44;55.09;95676.78;5003586;28;20808;-78
2021/09/07 05:34:39;;;;;;;8.75;6.72;;;15.30;70.90;;;15.54;55.13;95671.09;5014845;28;20226;-78
2021/09/07 05:37:06;;;;;;;8.80;6.85;;;15.40;70.90;;;15.64;55.00;95670.66;5022338;28;20244;-77
2021/09/07 05:39:34;;;;;;;9.45;6.97;;;15.40;71.70;;;15.73;54.91;95673.91;5005010;28;20225;-78
2021/09/07 05:42:01;;;;;;;9.43;7.22;;;15.50;70.90;;;15.80;55.04;95675.50;5017432;28;20224;-76
2021/09/07 05:44:28;;;;;;;8.95;7.13;;;15.60;70.80;;;15.88;54.56;95679.00;5031605;28;20701;-78
2021/09/07 05:46:56;;;;;;;9.15;7.05;;;15.70;70.60;;;15.94;54.57;95678.16;5028650;28;20222;-77
2021/09/07 05:49:24;;;;;;;7.90;6.65;;;15.80;70.60;;;16.00;54.72;95686.13;5013400;28;20215;-78
2021/09/07 05:51:51;;;;;;;10.05;7.72;;;15.90;70.50;;;16.09;54.54;95683.25;4997322;28;20217;-79
2021/09/07 05:54:18;;;;;;;8.15;6.65;;;15.90;70.50;;;16.17;54.76;95683.84;5015545;28;20622;-78
2021/09/07 05:56:46;;;;;;;10.02;7.53;;;16.00;70.50;;;16.24;54.47;95681.16;5006804;28;20782;-77
2021/09/07 05:59:13;;;;;;;10.05;7.10;;;16.00;70.50;;;16.33;54.73;95684.38;4990197;28;20219;-77
2021/09/07 06:01:40;;;;;;;10.02;7.53;;;16.10;70.70;;;16.40;54.58;95676.44;5006568;28;20278;-77
2021/09/07 06:04:08;;;;;;;34.42;8.32;;;16.20;70.80;;;16.52;54.81;95685.34;5023327;28;20184;-77
2021/09/07 06:06:35;;;;;;;12.18;7.50;;;16.30;71.00;;;16.61;54.72;95684.09;5008325;28;20224;-77
2021/09/07 06:09:03;;;;;;;11.35;7.88;;;16.40;71.10;;;16.73;54.61;95686.88;5028141;28;20303;-76
2021/09/07 06:11:30;;;;;;;8.90;7.75;;;16.50;71.40;;;16.84;54.81;95692.53;5021508;28;20762;-77
2021/09/07 06:13:57;;;;;;;10.23;7.60;;;16.50;71.40;;;16.93;54.66;95692.09;5023058;28;20516;-78
2021/09/07 06:16:24;;;;;;;10.00;7.53;;;16.70;71.50;;;17.04;55.13;95693.28;5021841;28;20312;-78
2021/09/07 06:18:51;;;;;;;9.18;7.15;;;16.80;71.40;;;17.14;54.86;95687.50;5023725;28;20701;-78
2021/09/07 06:21:19;;;;;;;10.02;7.32;;;16.90;71.10;;;17.24;54.53;95687.84;5015465;28;20271;-78
2021/09/07 06:23:59;;;;;;;11.27;7.18;;;17.00;71.20;;;17.33;54.60;95685.72;5009654;28;20216;-78
2021/09/07 06:26:27;;;;;;;8.70;7.07;;;17.00;70.90;;;17.43;55.05;95678.13;5006363;28;20227;-78
2021/09/07 06:28:54;;;;;;;9.32;7.78;;;17.20;71.20;;;17.50;54.58;95682.56;5019438;28;20427;-78
2021/09/07 06:31:22;;;;;;;8.90;7.10;;;17.30;71.30;;;17.57;54.81;95681.47;5028324;28;20246;-77
2021/09/07 06:33:50;;;;;;;11.10;7.30;;;17.30;71.10;;;17.68;54.51;95684.44;5022223;28;20216;-79
2021/09/07 06:36:17;;;;;;;11.93;7.35;;;17.40;71.10;;;17.76;54.74;95685.00;5005155;28;20715;-78
2021/09/07 06:38:44;;;;;;;10.98;7.45;;;17.50;71.20;;;17.87;54.83;95685.28;5022753;28;20232;-76
2021/09/07 06:41:11;;;;;;;8.43;6.85;;;17.60;71.40;;;17.96;54.67;95688.53;5011578;28;20362;-77
2021/09/07 06:43:39;;;;;;;8.75;7.03;;;17.60;71.40;;;18.01;54.90;95676.19;5019519;28;20211;-77
2021/09/07 06:46:06;;;;;;;9.02;6.80;;;17.80;71.60;;;18.18;54.95;95692.38;5019206;28;20288;-78
2021/09/07 06:48:33;;;;;;;11.10;7.05;;;17.80;71.40;;;18.29;54.66;95690.03;5002292;28;20268;-78
2021/09/07 06:51:01;;;;;;;8.20;6.78;;;17.90;71.40;;;18.42;54.31;95695.19;4989602;28;20727;-77
2021/09/07 06:53:28;;;;;;;8.50;6.95;;;18.00;71.50;;;18.52;54.68;95686.69;5030045;28;20269;-77
2021/09/07 06:55:55;;;;;;;9.25;7.63;;;18.10;71.60;;;18.63;54.82;95685.94;5021166;28;20300;-76
2021/09/07 06:58:23;;;;;;;11.05;7.40;;;18.20;71.10;;;18.76;54.34;95687.63;5019591;28;20702;-76
2021/09/07 07:00:50;;;;;;;8.45;6.85;;;18.40;70.70;;;18.88;53.90;95692.97;5018483;28;20296;-78
2021/09/07 07:03:18;;;;;;;9.45;6.90;;;18.50;70.90;;;18.99;53.82;95692.25;5011659;28;20196;-78
2021/09/07 07:05:45;;;;;;;8.65;7.00;;;18.60;70.70;;;19.12;53.29;95691.25;5010293;28;20287;-78
2021/09/07 07:08:12;;;;;;;8.40;6.70;;;18.70;70.80;;;19.25;53.71;95692.91;5009322;28;20204;-79
2021/09/07 07:10:39;;;;;;;8.45;6.75;;;18.80;70.70;;;19.40;53.51;95684.50;5012485;28;20563;-78
2021/09/07 07:13:11;;;;;;;9.63;6.65;;;18.90;70.70;;;19.53;53.61;95688.81;5009226;28;20224;-78
2021/09/07 07:15:38;;;;;;;8.63;6.93;;;19.00;70.50;;;19.66;53.29;95688.59;4993894;28;20217;-79
2021/09/07 07:18:05;;;;;;;8.32;7.40;;;19.20;70.60;;;19.83;53.18;95687.91;5024319;28;20291;-79
2021/09/07 07:20:32;;;;;;;8.43;6.80;;;19.30;70.50;;;20.00;52.95;95690.72;5010108;28;20209;-79
2021/09/07 07:23:00;;;;;;;10.40;6.85;;;19.40;70.50;;;20.19;52.48;95695.91;5011964;28;20284;-79
2021/09/07 07:25:28;;;;;;;8.93;7.53;;;19.50;70.30;;;20.40;52.67;95687.31;5012315;28;20217;-77
2021/09/07 07:27:55;;;;;;;10.73;7.00;;;19.70;70.30;;;20.62;52.50;95682.16;5018103;28;20196;-79
2021/09/07 07:30:22;;;;;;;8.00;6.88;;;19.90;70.30;;;20.82;52.07;95682.84;5000674;28;20582;-78
2021/09/07 07:32:49;;;;;;;8.07;7.07;;;20.00;70.10;;;21.01;52.15;95684.25;5010488;28;20249;-79
2021/09/07 07:35:17;;;;;;;8.88;6.97;;;20.20;70.10;;;21.19;52.04;95682.44;5012493;28;20295;-79
2021/09/07 07:37:44;;;;;;;7.90;6.80;;;20.40;70.10;;;21.33;51.67;95685.63;5012075;28;20660;-78
2021/09/07 07:40:11;;;;;;;10.13;6.90;;;20.50;70.00;;;21.43;51.21;95673.25;5023695;28;20308;-78
2021/09/07 07:42:39;;;;;;;7.60;6.78;;;20.70;69.80;;;21.62;51.54;95683.72;4978973;28;20695;-79
2021/09/07 07:45:07;;;;;;;8.60;6.97;;;20.80;69.30;;;21.75;51.01;95682.56;5011503;28;20272;-79
2021/09/07 07:47:34;;;;;;;9.70;6.97;;;21.00;68.90;;;21.83;50.01;95684.84;4979590;28;20202;-79
2021/09/07 07:50:01;;;;;;;8.23;6.47;;;21.10;68.20;;;21.92;49.99;95698.59;5010624;28;20554;-79
2021/09/07 07:52:29;;;;;;;8.93;6.93;;;21.30;68.40;;;21.97;49.71;95688.00;5011433;28;20208;-79
2021/09/07 07:54:56;;;;;;;8.40;7.18;;;21.40;67.80;;;21.96;49.59;95693.56;5011446;28;20196;-78
2021/09/07 07:57:23;;;;;;;8.15;7.07;;;21.40;67.50;;;21.98;49.53;95694.94;5011408;28;20284;-80
2021/09/07 07:59:50;;;;;;;9.00;6.63;;;21.50;67.20;;;21.95;49.49;95690.09;4995197;28;20283;-79
2021/09/07 08:02:18;;;;;;;6.93;6.13;;;21.50;67.20;;;21.94;49.53;95703.72;4995121;28;20659;-78
2021/09/07 08:04:52;;;;;;;8.13;6.93;;;21.50;67.10;;;21.92;49.44;95695.91;4996435;28;20699;-79
2021/09/07 08:07:20;;;;;;;8.00;6.82;;;21.60;67.30;;;21.95;49.59;95711.47;4995075;28;20200;-79
2021/09/07 08:09:47;;;;;;;7.88;6.57;;;21.60;67.50;;;21.95;49.99;95719.47;4995158;28;20237;-79
2021/09/07 08:12:17;;;;;;;11.00;7.25;;;21.60;67.70;;;21.97;49.93;95720.06;4995025;28;20197;-79
2021/09/07 08:14:45;;;;;;;8.52;7.13;;;21.60;67.50;;;21.97;49.85;95719.22;4994827;28;20252;-79
2021/09/07 08:17:14;;;;;;;8.48;6.85;;;21.70;67.60;;;22.03;49.65;95720.94;5011137;28;20210;-78
2021/09/07 08:19:42;;;;;;;8.25;6.35;;;21.60;67.60;;;22.11;49.93;95722.41;5011544;28;20792;-79
2021/09/07 08:22:10;;;;;;;6.82;6.13;;;21.70;67.70;;;22.24;49.75;95716.69;5010947;28;20229;-79
2021/09/07 08:24:37;;;;;;;8.63;7.25;;;21.70;67.80;;;22.43;49.53;95719.13;4995289;28;20305;-79
2021/09/07 08:27:05;;;;;;;9.70;6.97;;;21.80;67.70;;;22.57;49.61;95716.88;4994870;28;20301;-79
2021/09/07 08:29:32;;;;;;;9.85;6.97;;;21.90;67.50;;;22.68;49.32;95719.44;5011179;28;20235;-79
2021/09/07 08:32:00;;;;;;;9.55;6.95;;;22.00;67.40;;;22.78;49.28;95721.44;5011010;28;20213;-79
2021/09/07 08:34:27;;;;;;;7.50;6.47;;;22.10;67.30;;;22.85;48.55;95718.53;5011320;28;20250;-79
2021/09/07 08:36:54;;;;;;;7.80;6.53;;;22.30;67.10;;;22.90;48.48;95720.47;5011160;28;20820;-79
2021/09/07 08:39:21;;;;;;;7.68;6.43;;;22.30;67.00;;;22.92;48.74;95713.03;5011093;28;20233;-80
2021/09/07 08:41:48;;;;;;;7.68;6.13;;;22.40;66.90;;;22.98;48.33;95717.38;4994747;28;20231;-80
2021/09/07 08:44:20;;;;;;;8.10;6.53;;;22.50;66.80;;;23.01;48.71;95715.00;5011062;28;20259;-79
2021/09/07 08:46:48;;;;;;;8.65;6.30;;;22.50;66.50;;;23.01;47.83;95708.84;5010981;28;20211;-79
2021/09/07 08:49:18;;;;;;;8.80;6.13;;;22.60;66.40;;;23.09;48.42;95721.75;5027386;28;20197;-79
2021/09/07 08:51:46;;;;;;;8.27;6.38;;;22.60;66.20;;;23.16;48.11;95730.44;5010829;28;20759;-79
2021/09/07 08:54:14;;;;;;;7.40;6.28;;;22.60;66.40;;;23.25;48.19;95727.31;5010907;28;20243;-79
2021/09/07 08:56:42;;;;;;;6.47;5.80;;;22.70;66.40;;;23.37;48.40;95730.66;4995103;28;20263;-79
2021/09/07 08:59:09;;;;;;;7.25;5.63;;;22.80;66.50;;;23.50;48.25;95732.13;4978609;28;20197;-80
2021/09/07 09:01:38;;;;;;;7.95;6.75;;;22.90;66.50;;;23.65;48.42;95742.94;5010906;28;20240;-80
2021/09/07 09:04:25;;;;;;;7.65;5.90;;;23.00;66.60;;;23.79;47.93;95729.97;5014400;28;20201;-80
2021/09/07 09:06:52;;;;;;;7.75;6.00;;;23.10;65.90;;;23.94;47.65;95733.84;5014317;28;20221;-79
2021/09/07 09:09:20;;;;;;;9.07;6.18;;;23.20;66.30;;;24.09;47.61;95733.16;4998381;28;20200;-79
2021/09/07 09:11:54;;;;;;;8.60;6.32;;;23.40;66.20;;;24.22;47.36;95723.88;4998028;28;20325;-79
2021/09/07 09:14:40;;;;;;;7.10;6.38;;;23.50;66.30;;;24.37;46.97;95723.94;4981877;28;20243;-80
2021/09/07 09:17:19;;;;;;;7.18;6.25;;;23.60;65.90;;;24.51;46.91;95726.16;4997847;28;20237;-80
2021/09/07 09:19:58;;;;;;;7.80;6.43;;;23.80;65.90;;;24.61;46.80;95732.38;5014340;28;20196;-79
2021/09/07 09:22:59;;;;;;;7.22;6.15;;;23.90;65.80;;;24.74;46.91;95724.94;5014105;28;20190;-79
2021/09/07 09:25:38;;;;;;;8.27;6.38;;;24.10;66.30;;;24.83;46.54;95723.38;5003006;28;20230;-79
2021/09/07 09:28:22;;;;;;;6.85;6.03;;;24.20;65.20;;;24.95;46.09;95725.84;4997973;28;20612;-80
2021/09/07 09:30:55;;;;;;;7.72;6.15;;;24.30;65.50;;;25.06;46.06;95727.50;5013834;28;20219;-79
2021/09/07 09:33:28;;;;;;;7.15;6.03;;;24.40;64.90;;;25.16;45.71;95732.09;5013661;28;20311;-79
2021/09/07 09:36:01;;;;;;;6.80;6.10;;;24.50;64.70;;;25.24;45.62;95725.38;5012141;28;20255;-80
2021/09/07 09:38:35;;;;;;;6.80;6.10;;;24.60;64.70;;;25.29;45.37;95732.63;5013722;28;20215;-79
2021/09/07 09:41:05;;;;;;;7.60;6.47;;;24.70;64.50;;;25.29;45.04;95727.28;5022245;28;20264;-79
2021/09/07 09:43:43;;;;;;;7.80;6.28;;;24.70;64.20;;;25.25;44.55;95722.44;5013196;28;20713;-78
2021/09/07 09:46:20;;;;;;;8.18;6.40;;;24.80;63.80;;;25.20;44.85;95718.94;5027332;28;20225;-80
2021/09/07 09:48:49;;;;;;;7.72;5.80;;;24.80;63.60;;;25.15;44.96;95726.97;5003834;28;20210;-78
2021/09/07 09:51:19;;;;;;;8.07;6.60;;;24.80;63.90;;;25.12;45.20;95722.94;5007861;28;20239;-78
2021/09/07 09:53:49;;;;;;;8.68;6.40;;;24.80;64.00;;;25.10;45.14;95728.56;5013404;28;20235;-78
2021/09/07 09:56:18;;;;;;;11.55;5.97;;;24.80;63.90;;;25.12;45.69;95730.19;5029823;28;20224;-78
2021/09/07 09:58:45;;;;;;;8.18;5.82;;;24.70;64.20;;;25.17;45.74;95725.66;5030407;28;20223;-78
2021/09/07 10:01:17;;;;;;;10.70;6.60;;;24.80;64.30;;;25.26;45.00;95723.25;5032950;28;20255;-78
2021/09/07 10:03:45;;;;;;;7.95;6.78;;;24.80;63.90;;;25.36;45.31;95717.88;5032020;28;20530;-78
2021/09/07 10:06:20;;;;;;;7.65;6.20;;;24.80;64.00;;;25.52;44.84;95721.44;5029533;28;20213;-78
2021/09/07 10:08:47;;;;;;;9.23;6.35;;;24.90;64.10;;;25.70;44.93;95724.66;4996595;28;20254;-79
2021/09/07 10:11:20;;;;;;;9.32;6.50;;;25.00;64.40;;;25.93;44.54;95717.94;5010306;28;20668;-78
2021/09/07 10:13:53;;;;;;;8.13;6.53;;;25.10;64.20;;;26.17;44.56;95712.84;4994644;28;20229;-80
2021/09/07 10:16:45;;;;;;;8.35;6.75;;;25.20;64.10;;;26.41;44.32;95714.16;5015055;28;20256;-80
2021/09/07 10:19:58;;;;;;;7.45;6.15;;;25.40;64.10;;;26.59;44.27;95707.38;5016875;28;20248;-77
2021/09/07 10:26:01;;;;;;;9.52;6.13;;;25.80;63.20;;;26.60;43.09;95712.47;5029032;28;20234;-80